createdAt,value
2019-04-21T00:01:30.690Z,2.07
2019-04-21T00:06:55.338Z,2.08
2019-04-21T00:12:02.574Z,2.13
2019-04-21T00:17:02.760Z,2.00
2019-04-21T00:22:11.429Z,1.97
2019-04-21T00:27:25.605Z,2.10
2019-04-21T00:32:29.233Z,2.20
2019-04-21T00:37:42.589Z,2.67
2019-04-21T00:42:48.718Z,2.80
2019-04-21T00:48:02.287Z,3.03
2019-04-21T00:53:36.454Z,2.70
2019-04-21T00:58:33.250Z,1.93
2019-04-21T01:03:46.224Z,2.07
2019-04-21T01:08:51.816Z,2.30
2019-04-21T01:13:59.531Z,1.93
2019-04-21T01:19:00.841Z,2.00
2019-04-21T01:23:50.660Z,1.90
2019-04-21T01:29:11.914Z,2.00
2019-04-21T01:34:29.109Z,2.17
2019-04-21T01:39:35.237Z,2.27
2019-04-21T01:44:44.482Z,2.27
2019-04-21T01:49:38.949Z,2.10
2019-04-21T01:55:06.034Z,2.13
2019-04-21T02:00:00.952Z,1.93
2019-04-21T02:05:26.506Z,2.07
2019-04-21T02:10:35.204Z,2.00
2019-04-21T02:20:31.729Z,2.00
2019-04-21T02:25:50.652Z,2.17
2019-04-21T02:31:18.123Z,1.70
2019-04-21T02:36:30.856Z,2.50
2019-04-21T02:41:22.852Z,1.93
2019-04-21T02:46:42.394Z,2.37
2019-04-21T03:02:17.178Z,1.77
2019-04-21T03:07:41.336Z,1.80
2019-04-21T03:12:32.168Z,1.67
2019-04-21T03:17:51.446Z,1.90
2019-04-21T03:22:54.799Z,2.10
2019-04-21T03:38:14.733Z,1.73
2019-04-21T03:43:20.154Z,1.67
2019-04-21T03:48:27.061Z,1.60
2019-04-21T03:53:32.398Z,1.60
2019-04-21T03:58:54.631Z,1.90
2019-04-21T04:04:13.366Z,1.73
2019-04-21T04:14:47.407Z,1.73
2019-04-21T04:19:44.585Z,1.70
2019-04-21T04:25:11.202Z,1.70
2019-04-21T04:30:12.397Z,1.80
2019-04-21T04:35:17.282Z,2.07
2019-04-21T04:40:34.749Z,2.00
2019-04-21T04:50:49.344Z,1.63
2019-04-21T04:55:47.901Z,2.03
2019-04-21T05:01:08.678Z,1.93
2019-04-21T05:11:40.244Z,1.60
2019-04-21T05:21:54.705Z,1.77
2019-04-21T05:26:38.975Z,2.13
2019-04-21T05:32:04.614Z,2.00
2019-04-21T05:37:24.705Z,1.80
2019-04-21T05:42:28.442Z,1.60
2019-04-21T05:48:10.059Z,2.00
2019-04-21T05:53:00.198Z,1.80
2019-04-21T05:58:08.231Z,2.00
2019-04-21T06:03:29.299Z,1.73
2019-04-21T06:08:25.316Z,1.90
2019-04-21T06:13:45.962Z,2.10
2019-04-21T06:18:48.920Z,1.90
2019-04-21T06:23:47.945Z,2.30
2019-04-21T06:28:59.925Z,1.97
2019-04-21T06:34:06.747Z,2.20
2019-04-21T06:39:15.409Z,2.37
2019-04-21T06:44:30.954Z,2.90
2019-04-21T06:49:27.412Z,2.10
2019-04-21T06:54:41.077Z,2.73
2019-04-21T06:59:43.499Z,2.03
2019-04-21T07:04:56.073Z,2.17
2019-04-21T07:10:09.105Z,2.23
2019-04-21T07:15:03.306Z,2.50
2019-04-21T07:20:28.282Z,2.03
2019-04-21T07:25:22.309Z,2.10
2019-04-21T07:30:31.158Z,2.10
2019-04-21T07:35:41.093Z,2.27
2019-04-21T07:40:38.875Z,2.12
2019-04-21T07:45:45.873Z,1.83
2019-04-21T07:51:14.006Z,1.98
2019-04-21T07:56:06.309Z,2.60
2019-04-21T08:06:44.973Z,2.20
2019-04-21T08:11:40.602Z,1.90
2019-04-21T08:16:51.197Z,2.22
2019-04-21T08:22:01.798Z,1.80
2019-04-21T08:27:15.179Z,1.90
2019-04-21T08:37:21.523Z,2.00
2019-04-21T08:42:25.421Z,2.02
2019-04-21T08:47:36.534Z,2.27
2019-04-21T08:58:10.988Z,2.83
2019-04-21T09:03:14.233Z,2.30
2019-04-21T09:08:24.889Z,2.50
2019-04-21T09:13:32.698Z,2.05
2019-04-21T09:18:35.302Z,2.12
2019-04-21T09:23:45.182Z,2.30
2019-04-21T09:28:44.759Z,1.92
2019-04-21T09:33:47.353Z,1.98
2019-04-21T09:38:58.686Z,2.22
2019-04-21T09:43:57.238Z,2.15
2019-04-21T09:49:09.743Z,2.40
2019-04-21T09:54:18.991Z,2.35
2019-04-21T09:59:26.291Z,2.15
2019-04-21T10:04:27.049Z,2.58
2019-04-21T10:09:33.367Z,2.42
2019-04-21T10:14:38.910Z,2.10
2019-04-21T10:19:46.271Z,2.15
2019-04-21T10:24:52.227Z,2.00
2019-04-21T10:29:58.214Z,1.90
2019-04-21T10:35:05.486Z,1.65
2019-04-21T10:40:13.751Z,1.90
2019-04-21T10:45:21.089Z,1.77
2019-04-21T10:50:26.988Z,2.15
2019-04-21T10:55:48.625Z,1.67
2019-04-21T11:00:42.052Z,2.17
2019-04-21T11:05:48.628Z,1.75
2019-04-21T11:10:54.502Z,1.85
2019-04-21T11:16:01.336Z,1.82
2019-04-21T11:21:09.056Z,1.80
2019-04-21T11:26:16.123Z,1.60
2019-04-21T11:31:22.932Z,1.47
2019-04-21T11:36:31.324Z,1.80
2019-04-21T11:41:37.292Z,1.90
2019-04-21T11:46:44.446Z,1.90
2019-04-21T11:51:51.163Z,2.10
2019-04-21T11:56:57.133Z,1.92
2019-04-21T12:02:03.569Z,2.10
2019-04-21T12:07:09.458Z,2.42
2019-04-21T12:12:15.534Z,1.55
2019-04-21T12:17:21.296Z,1.90
2019-04-21T12:22:30.725Z,2.22
2019-04-21T12:27:35.975Z,2.12
2019-04-21T12:32:52.185Z,2.12
2019-04-21T12:37:58.511Z,2.17
2019-04-21T12:43:04.760Z,1.82
2019-04-21T12:48:10.482Z,2.10
2019-04-21T12:53:17.877Z,2.00
2019-04-21T12:58:25.482Z,2.00
2019-04-21T13:03:32.102Z,1.67
2019-04-21T13:08:45.639Z,1.80
2019-04-21T13:13:45.966Z,1.80
2019-04-21T13:18:51.675Z,2.10
2019-04-21T13:23:57.397Z,2.12
2019-04-21T13:29:03.168Z,2.60
2019-04-21T13:34:10.333Z,2.20
2019-04-21T13:40:03.411Z,1.82
2019-04-21T13:44:44.808Z,2.05
2019-04-21T13:49:50.669Z,1.52
2019-04-21T13:54:57.888Z,1.65
2019-04-21T14:00:03.662Z,1.47
2019-04-21T14:05:13.384Z,2.00
2019-04-21T14:10:19.743Z,1.60
2019-04-21T14:15:26.309Z,1.52
2019-04-21T14:20:33.313Z,1.37
2019-04-21T14:25:39.668Z,1.50
2019-04-21T14:30:46.147Z,1.37
2019-04-21T14:35:54.648Z,1.37
2019-04-21T14:41:02.051Z,1.07
2019-04-21T14:46:15.598Z,1.55
2019-04-21T14:51:45.213Z,1.72
2019-04-21T14:56:51.394Z,1.45
2019-04-21T15:01:57.909Z,1.27
2019-04-21T15:07:03.667Z,1.37
2019-04-21T15:12:10.013Z,1.10
2019-04-21T15:17:19.532Z,1.10
2019-04-21T15:22:26.077Z,1.27
2019-04-21T15:27:32.755Z,1.17
2019-04-21T15:32:40.133Z,1.50
2019-04-21T15:37:47.491Z,1.07
2019-04-21T15:42:54.601Z,1.10
2019-04-21T15:48:02.118Z,1.07
2019-04-21T15:53:11.735Z,1.15
2019-04-21T15:58:56.787Z,0.80
2019-04-21T16:04:04.741Z,1.07
2019-04-21T16:09:16.089Z,1.15
2019-04-21T16:14:18.979Z,1.05
2019-04-21T16:19:25.021Z,1.30
2019-04-21T16:24:30.929Z,1.10
2019-04-21T16:29:37.382Z,1.10
2019-04-21T16:34:50.801Z,1.20
2019-04-21T16:39:51.692Z,1.05
2019-04-21T16:44:58.894Z,1.15
2019-04-21T16:50:05.712Z,1.00
2019-04-21T16:55:19.532Z,1.10
2019-04-21T17:00:40.179Z,0.85
2019-04-21T17:05:36.285Z,0.90
2019-04-21T17:10:56.967Z,0.93
2019-04-21T17:16:07.752Z,1.40
2019-04-21T17:21:00.938Z,1.30
2019-04-21T17:26:05.344Z,1.10
2019-04-21T17:31:12.755Z,1.00
2019-04-21T17:36:19.003Z,1.10
2019-04-21T17:41:33.144Z,1.17
2019-04-21T17:46:41.369Z,1.17
2019-04-21T17:52:06.385Z,1.05
2019-04-21T17:57:34.827Z,1.10
2019-04-21T18:02:46.303Z,1.10
2019-04-21T18:07:43.591Z,1.00
2019-04-21T18:12:45.910Z,1.40
2019-04-21T18:17:42.909Z,1.12
2019-04-21T18:23:00.488Z,1.30
2019-04-21T18:28:06.690Z,1.37
2019-04-21T18:33:21.436Z,1.57
2019-04-21T18:38:38.569Z,1.22
2019-04-21T18:44:27.076Z,1.30
2019-04-21T18:48:53.852Z,1.57
2019-04-21T18:54:32.480Z,1.70
2019-04-21T18:59:21.256Z,1.60
2019-04-21T19:04:26.510Z,1.60
2019-04-21T19:10:11.403Z,1.72
2019-04-21T19:14:56.281Z,2.10
2019-04-21T19:25:16.683Z,2.30
2019-04-21T19:30:32.567Z,2.20
2019-04-21T19:35:11.644Z,2.15
2019-04-21T19:40:39.074Z,2.47
2019-04-21T19:45:39.633Z,2.87
2019-04-21T19:50:51.518Z,2.70
2019-04-21T19:55:42.445Z,2.80
2019-04-21T20:00:51.778Z,2.92
2019-04-21T20:06:06.006Z,2.80
2019-04-21T20:11:19.327Z,3.20
2019-04-21T20:16:31.531Z,2.45
2019-04-21T20:21:18.641Z,2.15
2019-04-21T20:26:34.815Z,1.80
2019-04-21T20:31:47.005Z,2.08
2019-04-21T20:37:02.070Z,2.33
2019-04-21T20:42:01.780Z,2.00
2019-04-21T20:47:07.817Z,2.12
2019-04-21T20:52:24.479Z,2.00
2019-04-21T20:57:26.019Z,2.25
2019-04-21T21:02:36.666Z,1.95
2019-04-21T21:07:44.152Z,2.00
2019-04-21T21:12:57.340Z,2.55
2019-04-21T21:18:06.070Z,2.17
2019-04-21T21:22:58.435Z,2.17
2019-04-21T21:28:04.485Z,2.00
2019-04-21T21:33:22.165Z,1.75
2019-04-21T21:38:31.175Z,1.98
2019-04-21T21:43:23.238Z,1.87
2019-04-21T21:48:42.978Z,2.10
2019-04-21T21:53:36.223Z,2.20
2019-04-21T21:58:43.932Z,2.10
2019-04-21T22:03:54.296Z,2.00
2019-04-21T22:08:56.608Z,2.00
2019-04-21T22:14:06.098Z,1.80
2019-04-21T22:19:32.493Z,2.30
2019-04-21T22:24:36.992Z,1.70
2019-04-21T22:29:39.195Z,1.80
2019-04-21T22:34:46.452Z,2.20
2019-04-21T22:39:57.837Z,2.12
2019-04-21T22:44:52.396Z,2.10
2019-04-21T22:49:58.861Z,2.20
2019-04-21T22:55:10.966Z,2.27
2019-04-21T23:00:16.703Z,2.33
2019-04-21T23:05:30.294Z,2.70
2019-04-21T23:10:31.562Z,2.73
2019-04-21T23:15:45.282Z,1.87
2019-04-21T23:21:03.302Z,1.90
2019-04-21T23:26:14.910Z,2.10
2019-04-21T23:31:18.659Z,2.23
2019-04-21T23:36:11.999Z,1.83
2019-04-21T23:41:15.315Z,1.80
2019-04-21T23:46:26.750Z,1.77
2019-04-21T23:51:39.801Z,1.87
2019-04-21T23:56:40.916Z,1.97
